createdAt,value
2022-07-30T00:00:05.320Z,0
2022-07-30T00:01:02.750Z,0
2022-07-30T00:02:02.442Z,0
2022-07-30T00:03:02.406Z,0
2022-07-30T00:04:02.903Z,0
2022-07-30T00:05:02.408Z,0
2022-07-30T00:06:05.903Z,0
2022-07-30T00:07:03.791Z,0
2022-07-30T00:08:02.427Z,0
2022-07-30T00:09:02.435Z,0
2022-07-30T00:10:02.442Z,0
2022-07-30T00:11:05.479Z,0
2022-07-30T00:12:09.308Z,0
2022-07-30T00:13:02.487Z,0
2022-07-30T00:14:02.443Z,0
2022-07-30T00:15:02.416Z,0
2022-07-30T00:16:02.484Z,0
2022-07-30T00:17:06.243Z,0
2022-07-30T00:18:02.891Z,0
2022-07-30T00:19:03.196Z,0
2022-07-30T00:20:05.134Z,0
2022-07-30T00:21:03.463Z,0
2022-07-30T00:22:05.318Z,0
2022-07-30T00:23:02.455Z,0
2022-07-30T00:24:11.140Z,0
2022-07-30T00:25:02.510Z,0
2022-07-30T00:26:02.437Z,0
2022-07-30T00:27:03.426Z,0
2022-07-30T00:28:05.514Z,0
2022-07-30T00:29:02.452Z,0
2022-07-30T00:30:02.488Z,0
2022-07-30T00:31:05.626Z,0
2022-07-30T00:32:02.439Z,0
2022-07-30T00:33:05.583Z,0
2022-07-30T00:34:02.458Z,0
2022-07-30T00:35:02.463Z,0
2022-07-30T00:36:02.445Z,0
2022-07-30T00:37:03.774Z,0
2022-07-30T00:38:02.494Z,0
2022-07-30T00:39:06.778Z,0
2022-07-30T00:40:02.457Z,0
2022-07-30T00:41:02.451Z,0
2022-07-30T00:42:02.459Z,0
2022-07-30T00:43:02.501Z,0
2022-07-30T00:44:05.351Z,0
2022-07-30T00:48:12.281Z,0
2022-07-30T00:49:03.044Z,0
2022-07-30T00:50:05.508Z,0
2022-07-30T00:51:05.520Z,0
2022-07-30T00:52:02.474Z,0
2022-07-30T00:53:02.509Z,0
2022-07-30T00:54:02.515Z,0
2022-07-30T00:55:05.619Z,0
2022-07-30T00:56:02.941Z,0
2022-07-30T00:57:04.062Z,0
2022-07-30T00:58:04.402Z,0
2022-07-30T00:59:02.506Z,0
2022-07-30T01:00:05.348Z,0
2022-07-30T01:01:02.984Z,0
2022-07-30T01:02:02.845Z,0
2022-07-30T01:03:02.534Z,0
2022-07-30T01:04:02.525Z,0
2022-07-30T01:05:02.518Z,0
2022-07-30T01:06:02.497Z,0
2022-07-30T01:07:03.741Z,0
2022-07-30T01:08:02.521Z,0
2022-07-30T01:09:02.543Z,0
2022-07-30T01:10:02.524Z,0
2022-07-30T01:11:03.649Z,0
2022-07-30T01:12:02.539Z,0
2022-07-30T01:13:02.548Z,0
2022-07-30T01:14:02.521Z,0
2022-07-30T01:15:02.547Z,0
2022-07-30T01:16:02.609Z,0
2022-07-30T01:17:03.609Z,0
2022-07-30T01:18:02.559Z,0
2022-07-30T01:19:02.511Z,0
2022-07-30T01:20:02.645Z,0
2022-07-30T01:21:02.550Z,0
2022-07-30T01:22:05.310Z,0
2022-07-30T01:23:02.560Z,0
2022-07-30T01:24:02.535Z,0
2022-07-30T01:25:02.537Z,0
2022-07-30T01:26:04.642Z,0
2022-07-30T01:27:03.583Z,0
2022-07-30T01:28:02.597Z,0
2022-07-30T01:29:02.544Z,0
2022-07-30T01:30:02.571Z,0
2022-07-30T01:31:02.579Z,0
2022-07-30T01:32:03.005Z,0
2022-07-30T01:33:02.616Z,0
2022-07-30T01:34:05.111Z,0
2022-07-30T01:35:02.639Z,0
2022-07-30T01:36:02.577Z,0
2022-07-30T01:37:03.530Z,0
2022-07-30T01:38:08.610Z,0
2022-07-30T01:39:02.573Z,0
2022-07-30T01:40:02.638Z,0
2022-07-30T01:41:02.569Z,0
2022-07-30T01:42:02.572Z,0
2022-07-30T01:43:03.868Z,0
2022-07-30T01:44:02.590Z,0
2022-07-30T01:45:02.566Z,0
2022-07-30T01:46:02.957Z,0
2022-07-30T01:47:03.834Z,0
2022-07-30T01:48:02.654Z,0
2022-07-30T01:49:05.788Z,0
2022-07-30T01:50:02.590Z,0
2022-07-30T01:51:02.581Z,0
2022-07-30T01:52:02.607Z,0
2022-07-30T01:53:02.609Z,0
2022-07-30T01:54:05.599Z,0
2022-07-30T01:55:02.601Z,0
2022-07-30T01:56:02.598Z,0
2022-07-30T01:57:04.099Z,0
2022-07-30T01:58:02.644Z,0
2022-07-30T01:59:02.600Z,0
2022-07-30T02:00:05.965Z,0
2022-07-30T02:01:03.024Z,0
2022-07-30T02:02:02.603Z,0
2022-07-30T02:03:02.670Z,0
2022-07-30T02:04:04.260Z,0
2022-07-30T02:05:05.432Z,0
2022-07-30T02:06:02.664Z,0
2022-07-30T02:07:03.922Z,0
2022-07-30T02:08:04.715Z,0
2022-07-30T02:09:02.623Z,0
2022-07-30T02:10:02.653Z,0
2022-07-30T02:11:03.732Z,0
2022-07-30T02:12:02.694Z,0
2022-07-30T02:13:02.641Z,0
2022-07-30T02:14:02.620Z,0
2022-07-30T02:15:02.679Z,0
2022-07-30T02:16:05.655Z,0
2022-07-30T02:17:03.975Z,0
2022-07-30T02:18:06.670Z,0
2022-07-30T02:19:09.214Z,0
2022-07-30T02:20:06.730Z,0
2022-07-30T02:21:05.448Z,0
2022-07-30T02:22:10.757Z,0
2022-07-30T02:23:02.663Z,0
2022-07-30T02:24:02.683Z,0
2022-07-30T02:25:02.659Z,0
2022-07-30T02:26:02.650Z,0
2022-07-30T02:27:06.696Z,0
2022-07-30T02:28:02.684Z,0
2022-07-30T02:29:02.657Z,0
2022-07-30T02:30:02.659Z,0
2022-07-30T02:31:02.872Z,0
2022-07-30T02:32:02.831Z,0
2022-07-30T02:33:05.801Z,0
2022-07-30T02:34:02.655Z,0
2022-07-30T02:35:02.681Z,0
2022-07-30T02:36:02.678Z,0
2022-07-30T02:37:03.906Z,0
2022-07-30T02:38:04.508Z,0
2022-07-30T02:39:02.729Z,0
2022-07-30T02:40:02.663Z,0
2022-07-30T02:41:03.058Z,0
2022-07-30T02:42:02.677Z,0
2022-07-30T02:43:02.698Z,0
2022-07-30T02:44:05.620Z,0
2022-07-30T02:45:03.694Z,0
2022-07-30T02:46:02.686Z,0
2022-07-30T02:47:07.432Z,0
2022-07-30T02:48:02.738Z,0
2022-07-30T02:49:06.027Z,0
2022-07-30T02:50:02.708Z,0
2022-07-30T02:51:02.692Z,0
2022-07-30T02:52:03.465Z,0
2022-07-30T02:53:02.724Z,0
2022-07-30T02:54:03.122Z,0
2022-07-30T02:55:03.745Z,0
2022-07-30T02:56:02.707Z,0
2022-07-30T02:57:03.961Z,0
2022-07-30T02:58:02.728Z,0
2022-07-30T02:59:02.718Z,0
2022-07-30T03:00:06.222Z,0
2022-07-30T03:01:05.485Z,0
2022-07-30T03:02:03.130Z,0
2022-07-30T03:03:08.650Z,0
2022-07-30T03:04:02.743Z,0
2022-07-30T03:05:02.713Z,0
2022-07-30T03:06:07.384Z,0
2022-07-30T03:07:09.006Z,0
2022-07-30T03:08:02.768Z,0
2022-07-30T03:09:02.737Z,0
2022-07-30T03:10:06.723Z,0
2022-07-30T03:11:05.545Z,0
2022-07-30T03:12:02.770Z,0
2022-07-30T03:13:02.814Z,0
2022-07-30T03:14:02.789Z,0
2022-07-30T03:15:02.830Z,0
2022-07-30T03:16:03.150Z,0
2022-07-30T03:17:06.533Z,0
2022-07-30T03:18:04.662Z,0
2022-07-30T03:19:02.743Z,0
2022-07-30T03:20:02.748Z,0
2022-07-30T03:21:02.790Z,0
2022-07-30T03:22:11.775Z,0
2022-07-30T03:23:03.780Z,0
2022-07-30T03:24:02.794Z,0
2022-07-30T03:25:02.788Z,0
2022-07-30T03:26:03.694Z,0
2022-07-30T03:27:06.947Z,0
2022-07-30T03:28:03.833Z,0
2022-07-30T03:29:05.720Z,0
2022-07-30T03:30:02.837Z,0
2022-07-30T03:31:03.148Z,0
2022-07-30T03:32:04.768Z,0
2022-07-30T03:33:02.839Z,0
2022-07-30T03:34:03.359Z,0
2022-07-30T03:35:20.298Z,0
2022-07-30T03:36:02.945Z,0
2022-07-30T03:37:03.842Z,0
2022-07-30T03:38:05.654Z,0
2022-07-30T03:39:02.819Z,0
2022-07-30T03:40:02.788Z,0
2022-07-30T03:41:02.821Z,0
2022-07-30T03:42:05.359Z,0
2022-07-30T03:43:02.962Z,0
2022-07-30T03:44:02.813Z,0
2022-07-30T03:45:02.775Z,0
2022-07-30T03:46:02.911Z,0
2022-07-30T03:47:04.692Z,0
2022-07-30T03:48:02.826Z,0
2022-07-30T03:49:09.342Z,0
2022-07-30T03:50:02.789Z,0
2022-07-30T03:51:02.818Z,0
2022-07-30T03:52:02.834Z,0
2022-07-30T03:53:02.823Z,0
2022-07-30T03:54:02.802Z,0
2022-07-30T03:55:02.815Z,0
2022-07-30T03:56:02.862Z,0
2022-07-30T03:57:04.017Z,0
2022-07-30T03:58:02.834Z,0
2022-07-30T03:59:02.798Z,0
2022-07-30T04:00:02.877Z,0
2022-07-30T04:01:02.831Z,0
2022-07-30T04:02:12.187Z,0
2022-07-30T04:03:02.846Z,0
2022-07-30T04:04:03.318Z,0
2022-07-30T04:05:05.928Z,0
2022-07-30T04:06:02.861Z,0
2022-07-30T04:07:04.040Z,0
2022-07-30T04:08:04.421Z,0
2022-07-30T04:09:02.835Z,0
2022-07-30T04:10:05.763Z,0
2022-07-30T04:11:02.824Z,0
2022-07-30T04:12:02.835Z,0
2022-07-30T04:13:04.441Z,0
2022-07-30T04:14:04.183Z,0
2022-07-30T04:15:02.837Z,0
2022-07-30T04:16:50.792Z,0
2022-07-30T04:17:18.075Z,0
2022-07-30T04:18:14.447Z,0
2022-07-30T04:19:14.456Z,0
2022-07-30T04:20:19.973Z,0
2022-07-30T04:21:22.956Z,0
2022-07-30T04:22:15.756Z,0
2022-07-30T04:23:14.438Z,0
2022-07-30T04:24:14.963Z,0
2022-07-30T04:25:27.026Z,0
2022-07-30T04:26:14.454Z,0
2022-07-30T04:27:14.466Z,0
2022-07-30T04:28:14.789Z,0
2022-07-30T04:29:26.237Z,0
2022-07-30T04:30:14.484Z,0
2022-07-30T04:31:14.830Z,0
2022-07-30T04:32:14.461Z,0
2022-07-30T04:33:17.656Z,0
2022-07-30T04:34:14.504Z,0
2022-07-30T04:35:52.503Z,0
2022-07-30T04:36:18.829Z,0
2022-07-30T04:37:14.469Z,0
2022-07-30T04:38:14.501Z,0
2022-07-30T04:39:18.206Z,0
2022-07-30T04:40:14.473Z,0
2022-07-30T04:41:14.472Z,0
2022-07-30T04:42:14.477Z,5
2022-07-30T04:43:14.496Z,0
2022-07-30T04:44:17.854Z,5
2022-07-30T04:45:20.008Z,5
2022-07-30T04:46:14.812Z,5
2022-07-30T04:47:16.017Z,5
2022-07-30T04:48:14.501Z,5
2022-07-30T04:49:15.212Z,5
2022-07-30T04:50:17.284Z,5
2022-07-30T04:51:14.495Z,5
2022-07-30T04:52:14.495Z,5
2022-07-30T04:53:14.502Z,5
2022-07-30T04:54:20.383Z,5
2022-07-30T04:55:17.708Z,5
2022-07-30T04:56:14.514Z,5
2022-07-30T04:57:15.115Z,5
2022-07-30T04:58:14.505Z,5
2022-07-30T04:59:14.995Z,5
2022-07-30T05:00:14.519Z,5
2022-07-30T05:01:17.545Z,5
2022-07-30T05:02:15.156Z,5
2022-07-30T05:03:14.520Z,5
2022-07-30T05:04:14.535Z,5
2022-07-30T05:05:14.803Z,5
2022-07-30T05:06:17.860Z,0
2022-07-30T05:07:14.530Z,0
2022-07-30T05:08:14.517Z,0
2022-07-30T05:09:14.552Z,0
2022-07-30T05:10:14.575Z,0
2022-07-30T05:11:14.541Z,0
2022-07-30T05:12:17.621Z,0
2022-07-30T05:13:18.582Z,0
2022-07-30T05:14:15.937Z,0
2022-07-30T05:15:14.554Z,0
2022-07-30T05:16:15.024Z,0
2022-07-30T05:17:17.414Z,0
2022-07-30T05:18:14.545Z,0
2022-07-30T05:19:17.086Z,0
2022-07-30T05:20:14.562Z,0
2022-07-30T05:21:14.566Z,0
2022-07-30T05:22:15.968Z,0
2022-07-30T05:23:14.548Z,0
2022-07-30T05:24:17.667Z,0
2022-07-30T05:25:25.161Z,0
2022-07-30T05:26:14.580Z,0
2022-07-30T05:27:14.615Z,0
2022-07-30T05:28:17.336Z,0
2022-07-30T05:30:21.056Z,0
2022-07-30T05:31:20.638Z,0
2022-07-30T05:32:17.004Z,0
2022-07-30T05:33:43.393Z,5
2022-07-30T05:34:14.622Z,5
2022-07-30T05:35:14.635Z,5
2022-07-30T05:36:14.613Z,5
2022-07-30T05:37:19.344Z,5
2022-07-30T05:38:14.598Z,5
2022-07-30T05:39:14.684Z,5
2022-07-30T05:40:14.628Z,5
2022-07-30T05:41:39.409Z,5
2022-07-30T05:42:18.836Z,5
2022-07-30T05:43:14.582Z,5
2022-07-30T05:44:14.766Z,5
2022-07-30T05:45:17.608Z,5
2022-07-30T05:46:16.000Z,5
2022-07-30T05:47:14.632Z,5
2022-07-30T05:48:14.613Z,5
2022-07-30T05:49:16.096Z,5
2022-07-30T05:50:14.759Z,10
2022-07-30T05:51:14.623Z,10
2022-07-30T05:52:15.326Z,10
2022-07-30T05:53:15.307Z,15
2022-07-30T05:54:14.621Z,15
2022-07-30T05:55:17.670Z,15
2022-07-30T05:56:14.615Z,10
2022-07-30T05:57:14.611Z,10
2022-07-30T05:58:14.612Z,10
2022-07-30T05:59:14.685Z,10
2022-07-30T06:00:17.802Z,10
2022-07-30T06:01:16.640Z,10
2022-07-30T06:02:14.616Z,10
2022-07-30T06:03:14.643Z,10
2022-07-30T06:04:14.993Z,10
2022-07-30T06:05:14.730Z,10
2022-07-30T06:06:18.623Z,10
2022-07-30T06:07:14.634Z,15
2022-07-30T06:08:14.834Z,15
2022-07-30T06:09:14.619Z,15
2022-07-30T06:10:14.648Z,10
2022-07-30T06:11:17.388Z,10
2022-07-30T06:12:14.631Z,10
2022-07-30T06:13:14.646Z,10
2022-07-30T06:14:16.007Z,10
2022-07-30T06:15:14.663Z,10
2022-07-30T06:16:15.019Z,15
2022-07-30T06:17:17.701Z,10
2022-07-30T06:18:17.785Z,10
2022-07-30T06:19:23.959Z,10
2022-07-30T06:20:14.672Z,10
2022-07-30T06:21:14.665Z,15
2022-07-30T06:22:21.733Z,20
2022-07-30T06:23:14.660Z,20
2022-07-30T06:24:14.661Z,35
2022-07-30T06:25:20.837Z,15
2022-07-30T06:26:14.678Z,15
2022-07-30T06:27:14.686Z,15
2022-07-30T06:28:45.612Z,15
2022-07-30T06:29:17.948Z,20
2022-07-30T06:30:14.830Z,20
2022-07-30T06:31:15.201Z,75
2022-07-30T06:32:14.664Z,25
2022-07-30T06:33:17.742Z,50
2022-07-30T06:34:14.703Z,20
2022-07-30T06:35:14.718Z,25
2022-07-30T06:36:20.641Z,25
2022-07-30T06:37:14.724Z,25
2022-07-30T06:38:17.850Z,30
2022-07-30T06:39:14.911Z,35
2022-07-30T06:40:14.703Z,40
2022-07-30T06:41:14.682Z,100
2022-07-30T06:42:14.701Z,65
2022-07-30T06:43:14.720Z,100
2022-07-30T06:44:17.764Z,30
2022-07-30T06:45:14.748Z,25
2022-07-30T06:46:15.187Z,25
2022-07-30T06:47:18.047Z,20
2022-07-30T06:48:14.706Z,20
2022-07-30T06:49:16.330Z,20
2022-07-30T06:50:19.201Z,15
2022-07-30T06:51:14.759Z,10
2022-07-30T06:52:20.578Z,10
2022-07-30T06:53:14.747Z,10
2022-07-30T06:54:14.751Z,15
2022-07-30T06:55:17.540Z,15
2022-07-30T06:56:14.718Z,15
2022-07-30T06:57:15.530Z,15
2022-07-30T06:58:14.727Z,10
2022-07-30T06:59:14.725Z,10
2022-07-30T07:00:18.008Z,10
2022-07-30T07:01:23.530Z,10
2022-07-30T07:02:14.752Z,10
2022-07-30T07:03:19.044Z,10
2022-07-30T07:04:15.155Z,10
2022-07-30T07:05:14.763Z,10
2022-07-30T07:06:18.631Z,10
2022-07-30T07:08:00.355Z,15
2022-07-30T07:08:14.727Z,20
2022-07-30T07:09:14.758Z,20
2022-07-30T07:10:15.505Z,40
2022-07-30T07:11:18.061Z,40
2022-07-30T07:12:14.623Z,55
2022-07-30T07:13:16.955Z,80
2022-07-30T07:14:14.747Z,130
2022-07-30T07:15:14.780Z,115
2022-07-30T07:16:14.746Z,40
2022-07-30T07:17:18.470Z,40
2022-07-30T07:18:14.798Z,35
2022-07-30T07:20:03.679Z,35
2022-07-30T07:20:14.791Z,35
2022-07-30T07:21:17.052Z,35
2022-07-30T07:22:18.534Z,45
2022-07-30T07:23:24.838Z,70
2022-07-30T07:24:14.764Z,45
2022-07-30T07:25:14.784Z,40
2022-07-30T07:26:14.768Z,70
2022-07-30T07:27:24.429Z,25
2022-07-30T07:28:35.482Z,25
2022-07-30T07:29:14.765Z,25
2022-07-30T07:30:16.517Z,25
2022-07-30T07:32:09.906Z,115
2022-07-30T07:32:22.200Z,110
2022-07-30T07:33:21.028Z,45
2022-07-30T07:34:28.471Z,30
2022-07-30T07:35:22.165Z,30
2022-07-30T07:36:19.327Z,30
2022-07-30T07:37:19.352Z,40
2022-07-30T07:38:19.326Z,40
2022-07-30T07:39:24.032Z,35
2022-07-30T07:40:19.665Z,30
2022-07-30T07:41:19.319Z,25
2022-07-30T07:42:19.347Z,25
2022-07-30T07:43:19.336Z,25
2022-07-30T07:44:19.354Z,25
2022-07-30T07:45:19.352Z,50
2022-07-30T07:46:36.223Z,35
2022-07-30T07:47:19.345Z,30
2022-07-30T07:48:19.347Z,35
2022-07-30T07:49:19.864Z,30
2022-07-30T07:50:19.376Z,35
2022-07-30T07:51:49.885Z,90
2022-07-30T07:52:19.355Z,40
2022-07-30T07:53:19.363Z,40
2022-07-30T07:54:30.338Z,30
2022-07-30T07:55:21.969Z,25
2022-07-30T07:56:20.642Z,20
2022-07-30T07:57:25.349Z,20
2022-07-30T07:58:33.227Z,15
2022-07-30T07:59:25.449Z,15
2022-07-30T08:00:19.383Z,15
2022-07-30T08:01:20.427Z,10
2022-07-30T08:02:19.790Z,10
2022-07-30T08:03:19.353Z,10
2022-07-30T08:04:19.820Z,10
2022-07-30T08:05:19.393Z,10
2022-07-30T08:06:27.107Z,15
2022-07-30T08:07:19.557Z,15
2022-07-30T08:08:19.373Z,20
2022-07-30T08:09:19.381Z,20
2022-07-30T08:10:19.398Z,30
2022-07-30T08:11:19.378Z,55
2022-07-30T08:12:19.381Z,90
2022-07-30T08:14:01.023Z,120
2022-07-30T08:15:24.426Z,65
2022-07-30T08:16:21.980Z,100
2022-07-30T08:17:22.766Z,65
2022-07-30T08:18:19.396Z,85
2022-07-30T08:19:19.382Z,110
2022-07-30T08:20:19.433Z,100
2022-07-30T08:21:19.393Z,65
2022-07-30T08:22:22.577Z,35
2022-07-30T08:23:19.384Z,25
2022-07-30T08:24:19.499Z,20
2022-07-30T08:25:31.024Z,20
2022-07-30T08:26:19.446Z,20
2022-07-30T08:27:19.453Z,20
2022-07-30T08:28:45.269Z,20
2022-07-30T08:29:25.862Z,20
2022-07-30T08:30:19.487Z,25
2022-07-30T08:31:19.413Z,25
2022-07-30T08:32:20.425Z,30
2022-07-30T08:33:22.272Z,35
2022-07-30T08:34:19.460Z,40
2022-07-30T08:35:19.472Z,35
2022-07-30T08:36:22.758Z,30
2022-07-30T08:37:23.025Z,35
2022-07-30T08:38:19.558Z,75
2022-07-30T08:39:22.199Z,35
2022-07-30T08:40:21.182Z,35
2022-07-30T08:41:19.447Z,35
2022-07-30T08:42:19.458Z,30
2022-07-30T08:43:19.485Z,30
2022-07-30T08:44:24.882Z,30
2022-07-30T08:45:19.498Z,30
2022-07-30T08:46:19.491Z,35
2022-07-30T08:47:19.488Z,35
2022-07-30T08:48:23.971Z,30
2022-07-30T08:49:22.216Z,25
2022-07-30T08:50:24.612Z,25
2022-07-30T08:51:19.469Z,20
2022-07-30T08:52:19.477Z,20
2022-07-30T08:53:19.449Z,25
2022-07-30T08:54:19.491Z,25
2022-07-30T08:55:22.575Z,25
2022-07-30T08:56:19.475Z,25
2022-07-30T08:57:19.460Z,20
2022-07-30T08:58:24.966Z,20
2022-07-30T08:59:19.451Z,25
2022-07-30T09:00:20.673Z,25
2022-07-30T09:01:19.472Z,30
2022-07-30T09:02:37.816Z,35
2022-07-30T09:03:19.505Z,30
2022-07-30T09:04:19.508Z,30
2022-07-30T09:05:19.542Z,35
2022-07-30T09:06:22.627Z,45
2022-07-30T09:07:20.111Z,75
2022-07-30T09:08:25.370Z,60
2022-07-30T09:09:19.477Z,60
2022-07-30T09:10:20.643Z,45
2022-07-30T09:11:22.324Z,55
2022-07-30T09:12:19.499Z,40
2022-07-30T09:13:22.638Z,35
2022-07-30T09:14:19.512Z,30
2022-07-30T09:15:19.557Z,30
2022-07-30T09:16:19.943Z,30
2022-07-30T09:17:22.318Z,30
2022-07-30T09:18:19.520Z,35
2022-07-30T09:19:19.505Z,40
2022-07-30T09:20:19.696Z,50
2022-07-30T09:21:19.572Z,70
2022-07-30T09:22:22.554Z,50
2022-07-30T09:23:19.497Z,45
2022-07-30T09:24:19.530Z,40
2022-07-30T09:25:19.531Z,45
2022-07-30T09:26:19.518Z,45
2022-07-30T09:27:19.511Z,90
2022-07-30T09:28:27.873Z,60
2022-07-30T09:29:19.549Z,45
2022-07-30T09:30:19.695Z,55
2022-07-30T09:31:19.875Z,50
2022-07-30T09:32:19.532Z,60
2022-07-30T09:33:27.931Z,60
2022-07-30T09:34:19.524Z,45
2022-07-30T09:35:19.554Z,45
2022-07-30T09:36:23.036Z,40
2022-07-30T09:37:21.795Z,45
2022-07-30T09:38:19.552Z,40
2022-07-30T09:39:22.674Z,40
2022-07-30T09:40:19.729Z,40
2022-07-30T09:41:46.071Z,40
2022-07-30T09:42:20.427Z,40
2022-07-30T09:43:21.433Z,45
2022-07-30T09:44:20.712Z,45
2022-07-30T09:45:19.581Z,70
2022-07-30T09:46:19.548Z,50
2022-07-30T09:47:19.580Z,45
2022-07-30T09:48:19.951Z,40
2022-07-30T09:49:20.854Z,40
2022-07-30T09:50:34.911Z,80
2022-07-30T09:52:01.474Z,75
2022-07-30T09:52:31.936Z,75
2022-07-30T09:53:22.726Z,75
2022-07-30T09:54:22.067Z,75
2022-07-30T09:55:22.432Z,75
2022-07-30T09:56:26.857Z,75
2022-07-30T09:57:37.244Z,75
2022-07-30T09:58:33.888Z,75
2022-07-30T09:59:37.308Z,75
2022-07-30T10:00:26.098Z,75
2022-07-30T10:01:23.118Z,40
2022-07-30T10:02:20.948Z,80
2022-07-30T10:03:48.933Z,80
2022-07-30T10:04:20.823Z,75
2022-07-30T10:05:28.428Z,50
2022-07-30T10:06:23.851Z,75
2022-07-30T10:07:44.960Z,60
2022-07-30T10:08:26.006Z,50
2022-07-30T10:09:29.482Z,50
2022-07-30T10:10:27.823Z,40
2022-07-30T10:11:25.831Z,45
2022-07-30T10:12:26.223Z,45
2022-07-30T10:13:37.218Z,85
2022-07-30T10:14:32.887Z,85
2022-07-30T10:15:23.519Z,85
2022-07-30T10:16:20.924Z,85
2022-07-30T10:17:27.603Z,70
2022-07-30T10:18:23.986Z,65
2022-07-30T10:19:50.223Z,35
2022-07-30T10:20:22.024Z,35
2022-07-30T10:21:27.929Z,75
2022-07-30T10:22:24.196Z,40
2022-07-30T10:23:35.125Z,80
2022-07-30T10:24:29.810Z,75
2022-07-30T10:25:30.490Z,75
2022-07-30T10:26:24.477Z,75
2022-07-30T10:27:24.808Z,75
2022-07-30T10:28:21.011Z,75
2022-07-30T10:29:38.817Z,75
2022-07-30T10:30:31.439Z,75
2022-07-30T10:32:04.225Z,75
2022-07-30T10:32:32.853Z,75
2022-07-30T10:33:51.285Z,75
2022-07-30T10:34:26.025Z,75
2022-07-30T10:35:51.764Z,75
2022-07-30T10:36:25.546Z,80
2022-07-30T10:37:24.536Z,30
2022-07-30T10:38:23.898Z,40
2022-07-30T10:39:21.523Z,50
2022-07-30T10:40:29.128Z,70
2022-07-30T10:41:53.867Z,35
2022-07-30T10:42:21.289Z,30
2022-07-30T10:43:33.798Z,25
2022-07-30T10:44:27.757Z,25
2022-07-30T10:45:26.695Z,25
2022-07-30T10:46:34.432Z,25
2022-07-30T10:47:22.895Z,25
2022-07-30T10:48:22.722Z,25
2022-07-30T10:49:26.920Z,20
2022-07-30T10:50:27.802Z,20
2022-07-30T10:51:48.930Z,15
2022-07-30T10:52:19.677Z,15
2022-07-30T10:53:25.605Z,15
2022-07-30T10:54:25.316Z,15
2022-07-30T10:55:43.263Z,10
2022-07-30T10:56:25.421Z,10
2022-07-30T10:57:49.764Z,10
2022-07-30T10:58:28.432Z,10
2022-07-30T10:59:25.988Z,10
2022-07-30T11:00:25.755Z,10
2022-07-30T11:01:38.877Z,10
2022-07-30T11:02:24.846Z,10
2022-07-30T11:03:47.042Z,10
2022-07-30T11:04:29.459Z,10
2022-07-30T11:05:47.185Z,10
2022-07-30T11:06:26.954Z,15
2022-07-30T11:07:26.213Z,15
2022-07-30T11:08:36.090Z,15
2022-07-30T11:09:21.669Z,15
2022-07-30T11:10:19.885Z,20
2022-07-30T11:12:21.858Z,20
2022-07-30T11:12:36.194Z,20
2022-07-30T11:13:48.014Z,20
2022-07-30T11:14:33.989Z,20
2022-07-30T11:15:42.621Z,20
2022-07-30T11:16:33.488Z,20
2022-07-30T11:17:34.291Z,20
2022-07-30T11:18:38.429Z,20
2022-07-30T11:20:13.933Z,25
2022-07-30T11:20:34.104Z,25
2022-07-30T11:21:36.879Z,30
2022-07-30T11:22:32.903Z,30
2022-07-30T11:23:37.900Z,35
2022-07-30T11:24:32.703Z,35
2022-07-30T11:26:04.437Z,30
2022-07-30T11:26:36.917Z,30
2022-07-30T11:27:38.501Z,25
2022-07-30T11:28:37.404Z,25
2022-07-30T11:29:59.938Z,25
2022-07-30T11:30:35.950Z,25
2022-07-30T11:32:12.054Z,25
2022-07-30T11:32:34.541Z,25
2022-07-30T11:33:41.662Z,30
2022-07-30T11:34:38.238Z,70
2022-07-30T11:35:42.751Z,35
2022-07-30T11:36:33.495Z,80
2022-07-30T11:37:58.178Z,80
2022-07-30T11:38:31.791Z,80
2022-07-30T11:39:49.217Z,85
2022-07-30T11:40:38.692Z,35
2022-07-30T11:41:31.830Z,35
2022-07-30T11:42:31.823Z,25
2022-07-30T11:43:45.586Z,25
2022-07-30T11:44:31.800Z,25
2022-07-30T11:45:34.560Z,20
2022-07-30T11:46:44.483Z,25
2022-07-30T11:47:31.814Z,25
2022-07-30T11:48:31.826Z,25
2022-07-30T11:49:32.331Z,65
2022-07-30T11:50:34.637Z,40
2022-07-30T11:51:31.843Z,25
2022-07-30T11:52:31.829Z,20
2022-07-30T11:53:32.519Z,20
2022-07-30T11:54:31.970Z,20
2022-07-30T11:55:31.812Z,15
2022-07-30T11:56:34.856Z,15
2022-07-30T11:57:45.279Z,10
2022-07-30T11:58:31.833Z,10
2022-07-30T11:59:31.837Z,10
2022-07-30T12:00:31.922Z,10
2022-07-30T12:01:35.241Z,15
2022-07-30T12:02:31.872Z,15
2022-07-30T12:03:34.490Z,20
2022-07-30T12:04:31.856Z,20
2022-07-30T12:05:31.850Z,30
2022-07-30T12:06:31.858Z,20
2022-07-30T12:07:31.847Z,20
2022-07-30T12:08:45.352Z,20
2022-07-30T12:09:36.185Z,20
2022-07-30T12:10:37.698Z,20
2022-07-30T12:11:31.891Z,15
2022-07-30T12:12:35.009Z,15
2022-07-30T12:13:58.298Z,15
2022-07-30T12:14:31.883Z,10
2022-07-30T12:15:31.875Z,10
2022-07-30T12:16:31.904Z,10
2022-07-30T12:17:32.126Z,10
2022-07-30T12:18:36.071Z,10
2022-07-30T12:19:52.592Z,10
2022-07-30T12:20:31.882Z,15
2022-07-30T12:21:31.911Z,15
2022-07-30T12:22:31.881Z,15
2022-07-30T12:23:35.046Z,20
2022-07-30T12:24:31.887Z,20
2022-07-30T12:25:31.913Z,20
2022-07-30T12:26:33.665Z,20
2022-07-30T12:27:31.887Z,20
2022-07-30T12:28:31.889Z,25
2022-07-30T12:29:31.887Z,30
2022-07-30T12:30:31.882Z,35
2022-07-30T12:31:31.955Z,35
2022-07-30T12:32:31.890Z,40
2022-07-30T12:33:31.925Z,65
2022-07-30T12:34:31.909Z,65
2022-07-30T12:35:31.896Z,75
2022-07-30T12:36:31.942Z,75
2022-07-30T12:37:32.239Z,75
2022-07-30T12:38:31.911Z,75
2022-07-30T12:39:34.969Z,75
2022-07-30T12:40:31.919Z,35
2022-07-30T12:41:31.938Z,30
2022-07-30T12:42:31.926Z,35
2022-07-30T12:43:31.927Z,30
2022-07-30T12:44:31.917Z,60
2022-07-30T12:45:54.440Z,30
2022-07-30T12:46:31.949Z,40
2022-07-30T12:47:31.943Z,70
2022-07-30T12:48:34.600Z,70
2022-07-30T12:49:55.589Z,70
2022-07-30T12:50:34.712Z,70
2022-07-30T12:51:32.234Z,65
2022-07-30T12:52:39.186Z,65
2022-07-30T12:53:31.939Z,75
2022-07-30T12:54:31.975Z,70
2022-07-30T12:55:34.948Z,65
2022-07-30T12:56:31.970Z,65
2022-07-30T12:57:31.936Z,65
2022-07-30T12:58:31.942Z,70
2022-07-30T12:59:33.051Z,70
2022-07-30T13:00:31.956Z,65
2022-07-30T13:01:33.573Z,65
2022-07-30T13:02:33.568Z,65
2022-07-30T13:03:31.961Z,40
2022-07-30T13:04:33.449Z,65
2022-07-30T13:05:31.964Z,60
2022-07-30T13:06:34.818Z,25
2022-07-30T13:07:31.959Z,70
2022-07-30T13:08:32.184Z,70
2022-07-30T13:09:31.962Z,70
2022-07-30T13:10:38.442Z,65
2022-07-30T13:11:32.002Z,65
2022-07-30T13:12:33.826Z,65
2022-07-30T13:13:31.985Z,65
2022-07-30T13:14:35.803Z,65
2022-07-30T13:15:31.979Z,65
2022-07-30T13:16:32.057Z,40
2022-07-30T13:17:38.416Z,65
2022-07-30T13:18:31.973Z,65
2022-07-30T13:19:31.989Z,65
2022-07-30T13:20:32.382Z,65
2022-07-30T13:21:32.046Z,65
2022-07-30T13:22:33.608Z,65
2022-07-30T13:23:34.852Z,65
2022-07-30T13:24:32.015Z,55
2022-07-30T13:25:45.321Z,45
2022-07-30T13:26:32.015Z,40
2022-07-30T13:27:32.003Z,40
2022-07-30T13:28:34.843Z,65
2022-07-30T13:29:32.016Z,50
2022-07-30T13:30:32.019Z,30
2022-07-30T13:31:46.972Z,25
2022-07-30T13:32:32.025Z,25
2022-07-30T13:33:32.013Z,25
2022-07-30T13:34:35.248Z,25
2022-07-30T13:35:32.008Z,50
2022-07-30T13:36:32.035Z,25
2022-07-30T13:37:46.635Z,25
2022-07-30T13:38:32.018Z,25
2022-07-30T13:39:34.897Z,25
2022-07-30T13:40:32.037Z,60
2022-07-30T13:41:32.061Z,25
2022-07-30T13:42:32.066Z,25
2022-07-30T13:43:35.984Z,25
2022-07-30T13:44:32.028Z,25
2022-07-30T13:45:33.291Z,25
2022-07-30T13:46:32.044Z,25
2022-07-30T13:47:32.061Z,25
2022-07-30T13:48:32.041Z,25
2022-07-30T13:49:34.969Z,30
2022-07-30T13:50:35.527Z,25
2022-07-30T13:51:32.058Z,25
2022-07-30T13:52:32.080Z,25
2022-07-30T13:53:32.065Z,25
2022-07-30T13:54:32.069Z,20
2022-07-30T13:55:32.138Z,25
2022-07-30T13:56:33.698Z,25
2022-07-30T13:57:32.087Z,20
2022-07-30T13:58:37.966Z,20
2022-07-30T13:59:32.070Z,20
2022-07-30T14:00:32.080Z,25
2022-07-30T14:01:35.388Z,65
2022-07-30T14:02:33.917Z,35
2022-07-30T14:03:32.231Z,65
2022-07-30T14:04:32.090Z,30
2022-07-30T14:05:32.119Z,30
2022-07-30T14:06:32.215Z,30
2022-07-30T14:07:34.929Z,30
2022-07-30T14:08:32.816Z,30
2022-07-30T14:09:32.093Z,30
2022-07-30T14:10:32.082Z,25
2022-07-30T14:11:32.143Z,25
2022-07-30T14:12:34.905Z,20
2022-07-30T14:13:32.086Z,20
2022-07-30T14:14:32.081Z,20
2022-07-30T14:15:32.099Z,20
2022-07-30T14:16:58.101Z,25
2022-07-30T14:17:33.364Z,55
2022-07-30T14:18:35.124Z,25
2022-07-30T14:19:33.654Z,30
2022-07-30T14:20:35.839Z,30
2022-07-30T14:21:32.109Z,25
2022-07-30T14:22:32.163Z,25
2022-07-30T14:23:34.937Z,25
2022-07-30T14:24:32.250Z,20
2022-07-30T14:25:32.116Z,20
2022-07-30T14:26:41.214Z,20
2022-07-30T14:27:32.143Z,20
2022-07-30T14:28:33.277Z,20
2022-07-30T14:29:32.135Z,20
2022-07-30T14:30:32.396Z,25
2022-07-30T14:31:32.140Z,20
2022-07-30T14:32:37.341Z,20